W1JCN Weather Reports


Display with metric or nautical units.
time (UTC)temp
F
wind
direction
speed
MPH
gust
MPH
rain 1hr
in
rain 24hr
in
rain mn
in
humidity
%
barometer
mb
20200329064802 42 136 1.0 6.0 0.00 0.00 0.00 90 1017.0
20200329063902 42 127 0.0 6.0 0.00 0.00 0.00 90 1017.3
20200329063002 41 235 0.0 3.0 0.00 0.00 0.00 90 1017.4
20200329062102 41 0 0.0 0.0 0.00 0.00 0.00 89 1017.5
20200329061201 41 144 1.0 3.0 0.00 0.00 0.00 89 1017.3
20200329060302 42 59 1.0 4.0 0.00 0.00 0.00 88 1017.4
20200329055402 42 0 0.0 0.0 0.00 0.00 0.00 88 1017.2
20200329054501 42 0 0.0 0.0 0.00 0.00 0.00 87 1017.4
20200329053601 42 0 0.0 0.0 0.00 0.00 0.00 87 1017.4
20200329052701 42 236 0.0 2.0 0.00 0.00 0.00 87 1017.6
20200329051802 41 192 0.0 2.0 0.00 0.00 0.00 87 1017.6
20200329050902 41 188 0.0 2.0 0.00 0.00 0.00 86 1017.3
20200329050001 41 0 0.0 0.0 0.00 0.00 0.00 86 1017.5
20200329045103 41 0 0.0 0.0 0.00 0.00 0.00 87 1017.8
20200329044201 41 0 0.0 0.0 0.00 0.00 0.00 85 1017.9
20200329043301 41 0 0.0 0.0 0.00 0.00 0.00 85 1018.0
20200329042401 41 0 0.0 0.0 0.00 0.00 0.00 84 1017.9
20200329041501 42 0 0.0 0.0 0.00 0.00 0.00 84 1017.7
20200329040602 42 0 0.0 0.0 0.00 0.00 0.00 83 1017.6
20200329035701 42 0 0.0 0.0 0.00 0.00 0.00 82 1017.7
20200329034801 42 0 0.0 0.0 0.00 0.00 0.00 81 1017.8
20200329033901 42 0 0.0 0.0 0.00 0.00 0.00 82 1017.8
20200329033009 42 0 0.0 0.0 0.00 0.00 0.00 81 1018.0
20200329032101 42 0 0.0 0.0 0.00 0.00 0.00 82 1018.3
20200329031211 41 0 0.0 0.0 0.00 0.00 0.00 83 1018.4
20200329030301 41 0 0.0 0.0 0.00 0.00 0.00 83 1018.4
20200329025403 40 0 0.0 0.0 0.00 0.00 0.00 82 1018.3
20200329024504 40 0 0.0 0.0 0.00 0.00 0.00 83 1018.3
20200329023601 41 186 0.0 1.0 0.00 0.00 0.00 81 1018.4
20200329022701 42 0 0.0 0.0 0.00 0.00 0.00 77 1018.6
20200329021801 42 0 0.0 0.0 0.00 0.00 0.00 71 1018.8
20200329020901 43 0 0.0 0.0 0.00 0.00 0.00 65 1018.9
20200329020001 43 0 0.0 0.0 0.00 0.00 0.00 66 1019.0
20200329015101 43 0 0.0 0.0 0.00 0.00 0.00 62 1018.7
20200329014201 44 0 0.0 0.0 0.00 0.00 0.00 60 1018.8
20200329013301 44 0 0.0 0.0 0.00 0.00 0.00 59 1018.8
20200329012401 44 186 0.0 2.0 0.00 0.00 0.00 58 1018.8
20200329011501 44 181 1.0 3.0 0.00 0.00 0.00 56 1018.8
20200329010601 44 166 1.0 3.0 0.00 0.00 0.00 56 1018.6
20200329005701 44 166 1.0 4.0 0.00 0.00 0.00 57 1018.6
20200329004801 44 0 0.0 0.0 0.00 0.00 0.00 55 1018.6
20200329003901 45 0 0.0 0.0 0.00 0.00 0.00 58 1018.5
20200329003001 45 0 0.0 0.0 0.00 0.00 0.00 55 1018.4
20200329002101 45 0 0.0 0.0 0.00 0.00 0.00 55 1018.5
20200329001202 45 0 0.0 0.0 0.00 0.00 0.00 54 1018.3
20200329000301 45 179 1.0 5.0 0.00 0.00 0.00 53 1018.1
20200328235404 46 174 1.0 6.0 0.00 0.00 0.00 52 1018.0
20200328234501 46 206 1.0 4.0 0.00 0.00 0.00 50 1017.9
20200328233601 46 218 1.0 3.0 0.00 0.00 0.00 52 1018.0
20200328232701 46 185 1.0 3.0 0.00 0.00 0.00 53 1017.8
20200328231801 46 218 1.0 4.0 0.00 0.00 0.00 50 1017.6
20200328230901 47 235 2.0 7.0 0.00 0.00 0.00 49 1017.6
20200328230004 48 212 2.0 3.0 0.00 0.00 0.00 48 1017.6
20200328225101 48 202 2.0 4.0 0.00 0.00 0.00 46 1017.4
20200328224201 48 174 1.0 5.0 0.00 0.00 0.00 46 1017.4
20200328223301 48 177 1.0 5.0 0.00 0.00 0.00 48 1017.2
20200328222401 48 172 1.0 5.0 0.00 0.00 0.00 44 1017.2
20200328221501 48 160 0.0 2.0 0.00 0.00 0.00 46 1017.1
20200328220602 48 167 1.0 4.0 0.00 0.00 0.00 47 1017.1
20200328215701 48 181 2.0 6.0 0.00 0.00 0.00 43 1016.9
20200328214801 48 179 3.0 10.0 0.00 0.00 0.00 42 1016.7
20200328213900 49 182 3.0 9.0 0.00 0.00 0.00 42 1016.7
20200328213000 49 194 3.0 8.0 0.00 0.00 0.00 42 1016.7
20200328212104 49 191 2.0 7.0 0.00 0.00 0.00 41 1016.4
20200328211202 50 187 2.0 6.0 0.00 0.00 0.00 39 1016.4
20200328210301 49 189 2.0 6.0 0.00 0.00 0.00 38 1016.2
20200328205400 49 197 2.0 6.0 0.00 0.00 0.00 39 1016.1
20200328204501 49 193 3.0 7.0 0.00 0.00 0.00 38 1016.4
20200328203605 49 197 2.0 6.0 0.00 0.00 0.00 40 1016.5
20200328202700 49 184 2.0 6.0 0.00 0.00 0.00 38 1016.9
20200328201801 49 182 2.0 5.0 0.00 0.00 0.00 40 1016.7
20200328200900 49 190 1.0 4.0 0.00 0.00 0.00 41 1016.9
20200328200000 49 201 1.0 3.0 0.00 0.00 0.00 38 1017.1
20200328195101 49 202 0.0 2.0 0.00 0.00 0.00 38 1017.2
20200328194200 49 202 0.0 2.0 0.00 0.00 0.00 39 1016.9
20200328193300 48 202 0.0 2.0 0.00 0.00 0.00 38 1016.7
20200328192400 48 202 1.0 3.0 0.00 0.00 0.00 41 1016.6
20200328191502 48 198 2.0 4.0 0.00 0.00 0.00 40 1016.7
20200328190600 48 181 1.0 4.0 0.00 0.00 0.00 41 1016.8
20200328185709 47 165 1.0 4.0 0.00 0.00 0.00 40 1016.8
20200328184805 47 172 2.0 6.0 0.00 0.00 0.00 40 1017.0
20200328183900 48 189 1.0 5.0 0.00 0.00 0.00 40 1017.2
20200328183000 47 185 2.0 5.0 0.00 0.00 0.00 43 1017.2
20200328182101 48 185 2.0 7.0 0.00 0.00 0.00 39 1017.6
20200328181201 48 239 2.0 4.0 0.00 0.00 0.00 42 1017.8
20200328180300 48 217 2.0 4.0 0.00 0.00 0.00 41 1017.8
20200328175401 48 192 1.0 4.0 0.00 0.00 0.00 43 1018.1
20200328174504 48 174 2.0 5.0 0.00 0.00 0.00 41 1018.3
20200328173605 48 209 2.0 4.0 0.00 0.00 0.00 39 1018.3
20200328172700 48 235 1.0 3.0 0.00 0.00 0.00 38 1018.2
20200328171800 48 224 1.0 4.0 0.00 0.00 0.00 38 1018.1
20200328170900 48 175 2.0 4.0 0.00 0.00 0.00 37 1018.2
20200328170000 48 202 2.0 6.0 0.00 0.00 0.00 35 1018.1
20200328165101 48 228 2.0 4.0 0.00 0.00 0.00 39 1017.9
20200328164200 48 229 2.0 5.0 0.00 0.00 0.00 39 1017.9
20200328163300 48 216 2.0 6.0 0.00 0.00 0.00 38 1018.0
20200328162400 47 169 3.0 9.0 0.00 0.00 0.00 35 1017.9
20200328161500 48 165 2.0 6.0 0.00 0.00 0.00 32 1018.1
20200328160600 49 186 2.0 5.0 0.00 0.00 0.00 30 1018.2
20200328155700 48 252 2.0 4.0 0.00 0.00 0.00 39 1018.4
20200328154800 47 194 2.0 6.0 0.00 0.00 0.00 36 1018.6
20200328153901 47 188 1.0 3.0 0.00 0.00 0.00 38 1018.5
20200328153000 46 153 2.0 5.0 0.00 0.00 0.00 34 1018.5
20200328151200 46 174 2.0 7.0 0.00 0.00 0.00 34 1018.2
20200328150300 45 155 2.0 4.0 0.00 0.00 0.00 30 1018.2
20200328145400 45 162 1.0 4.0 0.00 0.00 0.00 31 1018.3
20200328144500 45 172 1.0 5.0 0.00 0.00 0.00 34 1018.5
20200328143600 44 188 2.0 5.0 0.00 0.00 0.00 38 1018.4
20200328142700 44 183 2.0 5.0 0.00 0.00 0.00 39 1018.4
20200328141800 44 168 1.0 5.0 0.00 0.00 0.00 37 1018.6
20200328140900 44 143 1.0 4.0 0.00 0.00 0.00 37 1018.7
20200328140000 43 170 1.0 5.0 0.00 0.00 0.00 37 1018.8
20200328135100 43 182 1.0 6.0 0.00 0.00 0.00 44 1018.4
20200328134200 42 170 3.0 5.0 0.00 0.00 0.00 46 1018.5
20200328133300 42 174 2.0 5.0 0.00 0.00 0.00 47 1018.2
20200328132400 40 192 1.0 3.0 0.00 0.00 0.00 50 1018.4
20200328131500 39 0 0.0 0.0 0.00 0.00 0.00 50 1018.3
20200328130600 37 0 0.0 0.0 0.00 0.00 0.00 58 1018.0
20200328125659 36 0 0.0 0.0 0.00 0.00 0.00 59 1018.2
20200328124800 35 0 0.0 0.0 0.00 0.00 0.00 57 1018.0
20200328123907 33 0 0.0 0.0 0.00 0.00 0.00 65 1017.7
20200328123003 32 0 0.0 0.0 0.00 0.00 0.00 76 1017.5
20200328122259 31 0 0.0 0.0 0.00 0.00 0.00 76 1017.4
20200328121159 30 0 0.0 0.0 0.00 0.00 0.00 80 1017.8
20200328120259 28 0 0.0 0.0 0.00 0.00 0.00 79 1017.5
20200328115401 28 0 0.0 0.0 0.00 0.00 0.00 82 1017.9
20200328114500 27 0 0.0 0.0 0.00 0.00 0.00 83 1017.8
20200328113602 27 0 0.0 0.0 0.00 0.00 0.00 82 1017.8
20200328112659 26 0 0.0 0.0 0.00 0.00 0.00 83 1017.6
20200328111759 26 0 0.0 0.0 0.00 0.00 0.00 81 1017.4
20200328110859 26 0 0.0 0.0 0.00 0.00 0.00 81 1017.3
20200328110047 26 0 0.0 0.0 0.00 0.00 0.00 81 1017.0
20200328105059 26 0 0.0 0.0 0.00 0.00 0.00 82 1017.0
20200328104159 26 0 0.0 0.0 0.00 0.00 0.00 81 1017.0
20200328103259 26 0 0.0 0.0 0.00 0.00 0.00 80 1016.9
20200328102359 26 0 0.0 0.0 0.00 0.00 0.00 82 1017.0
20200328101459 27 0 0.0 0.0 0.00 0.00 0.00 82 1016.8
20200328100559 26 0 0.0 0.0 0.00 0.00 0.00 81 1016.8
20200328095659 26 0 0.0 0.0 0.00 0.00 0.00 82 1016.8
20200328094759 27 0 0.0 0.0 0.00 0.00 0.00 82 1016.8
20200328093859 27 0 0.0 0.0 0.00 0.00 0.00 82 1016.6
20200328092959 27 0 0.0 0.0 0.00 0.00 0.00 82 1016.4
20200328091159 27 0 0.0 0.0 0.00 0.00 0.00 81 1016.3
20200328090259 27 0 0.0 0.0 0.00 0.00 0.00 82 1016.1
20200328085359 27 0 0.0 0.0 0.00 0.00 0.00 82 1016.0
20200328084459 27 0 0.0 0.0 0.00 0.00 0.00 81 1016.1
20200328083559 27 0 0.0 0.0 0.00 0.00 0.00 81 1016.1
20200328082659 28 0 0.0 0.0 0.00 0.00 0.00 80 1016.1
20200328081759 28 0 0.0 0.0 0.00 0.00 0.00 81 1016.3
20200328080859 27 0 0.0 0.0 0.00 0.00 0.00 81 1016.5
20200328075959 28 0 0.0 0.0 0.00 0.00 0.00 79 1016.5
20200328075059 28 0 0.0 0.0 0.00 0.00 0.00 80 1016.6
20200328074159 28 0 0.0 0.0 0.00 0.00 0.00 78 1016.8
20200328073259 28 0 0.0 0.0 0.00 0.00 0.00 79 1016.9
20200328072359 28 0 0.0 0.0 0.00 0.00 0.00 77 1016.6
20200328071459 29 0 0.0 0.0 0.00 0.00 0.00 77 1016.4
20200328070559 29 0 0.0 0.0 0.00 0.00 0.00 77 1016.7
20200328065659 29 0 0.0 0.0 0.00 0.00 0.00 77 1016.7